createdAt,value
2022-09-23T00:01:16.815Z,5.22
2022-09-23T00:03:49.042Z,3.83
2022-09-23T00:06:22.142Z,4.68
2022-09-23T00:08:50.288Z,4.82
2022-09-23T00:11:22.837Z,3.78
2022-09-23T00:13:53.074Z,5.95
2022-09-23T00:16:23.599Z,12.75
2022-09-23T00:18:50.826Z,6.43
2022-09-23T00:21:19.281Z,5.50
2022-09-23T00:23:46.060Z,5.15
2022-09-23T00:26:15.817Z,6.40
2022-09-23T00:28:42.731Z,4.50
2022-09-23T00:31:12.595Z,3.65
2022-09-23T00:33:40.750Z,4.78
2022-09-23T00:36:11.057Z,4.90
2022-09-23T00:38:38.369Z,5.15
2022-09-23T00:41:05.621Z,3.42
2022-09-23T00:43:53.591Z,4.18
2022-09-23T00:46:39.789Z,5.85
2022-09-23T00:49:26.604Z,3.95
2022-09-23T00:52:00.887Z,4.13
2022-09-23T00:54:29.308Z,6.65
2022-09-23T00:56:57.648Z,3.53
2022-09-23T00:59:26.130Z,5.72
2022-09-23T01:01:55.814Z,6.80
2022-09-23T01:04:24.453Z,4.40
2022-09-23T01:06:51.298Z,5.82
2022-09-23T01:09:18.541Z,8.50
2022-09-23T01:12:24.287Z,5.63
2022-09-23T01:14:57.309Z,6.18
2022-09-23T01:17:47.939Z,8.85
2022-09-23T01:23:04.748Z,4.97
2022-09-23T01:25:49.351Z,8.23
2022-09-23T01:29:02.313Z,5.95
2022-09-23T01:31:53.019Z,4.43
2022-09-23T01:34:39.948Z,4.18
2022-09-23T01:37:24.812Z,6.53
2022-09-23T01:40:13.595Z,4.47
2022-09-23T01:42:53.975Z,5.00
2022-09-23T01:45:20.638Z,6.55
2022-09-23T01:48:10.486Z,6.63
2022-09-23T01:50:57.689Z,4.18
2022-09-23T01:53:31.244Z,4.55
2022-09-23T01:56:02.532Z,3.85
2022-09-23T01:58:39.231Z,4.78
2022-09-23T02:01:08.476Z,7.85
2022-09-23T02:03:39.410Z,4.40
2022-09-23T02:06:19.809Z,6.63
2022-09-23T02:09:00.336Z,5.20
2022-09-23T02:13:58.470Z,6.18
2022-09-23T02:16:51.009Z,3.53
2022-09-23T02:19:29.130Z,5.18
2022-09-23T02:22:05.718Z,4.63
2022-09-23T02:24:36.216Z,4.50
2022-09-23T02:29:57.654Z,6.40
2022-09-23T02:32:42.855Z,4.05
2022-09-23T02:35:26.924Z,4.85
2022-09-23T02:38:13.760Z,7.57
2022-09-23T02:40:53.730Z,7.47
2022-09-23T02:43:32.166Z,4.25
2022-09-23T02:45:58.963Z,6.40
2022-09-23T02:48:36.220Z,4.90
2022-09-23T02:51:03.748Z,4.45
2022-09-23T02:53:34.961Z,9.85
2022-09-23T02:56:03.014Z,6.53
2022-09-23T02:58:29.987Z,9.00
2022-09-23T03:01:31.469Z,5.07
2022-09-23T03:04:14.733Z,9.02
2022-09-23T03:07:02.567Z,10.30
2022-09-23T03:09:47.412Z,11.90
2022-09-23T03:12:21.539Z,10.85
2022-09-23T03:14:54.648Z,7.90
2022-09-23T03:17:31.744Z,7.88
2022-09-23T03:20:10.039Z,7.43
2022-09-23T03:22:53.569Z,7.40
2022-09-23T03:25:23.960Z,9.48
2022-09-23T03:27:57.018Z,10.75
2022-09-23T03:30:24.872Z,7.20
2022-09-23T03:32:52.410Z,11.10
2022-09-23T03:35:20.874Z,9.10
2022-09-23T03:37:57.211Z,12.38
2022-09-23T03:40:29.391Z,8.10
2022-09-23T03:42:58.415Z,9.45
2022-09-23T03:45:30.985Z,9.77
2022-09-23T03:47:57.887Z,9.60
2022-09-23T03:50:24.778Z,12.05
2022-09-23T03:52:51.526Z,12.20
2022-09-23T03:55:19.280Z,9.77
2022-09-23T03:57:46.684Z,9.57
2022-09-23T04:00:14.462Z,9.90
2022-09-23T04:02:41.587Z,11.23
2022-09-23T04:05:12.263Z,13.70
2022-09-23T04:07:39.140Z,9.95
2022-09-23T04:10:06.590Z,11.20
2022-09-23T04:12:33.270Z,10.13
2022-09-23T04:15:00.135Z,12.07
2022-09-23T04:17:26.851Z,13.20
2022-09-23T04:19:53.481Z,13.40
2022-09-23T04:22:20.149Z,15.90
2022-09-23T04:24:46.971Z,20.27
2022-09-23T04:27:13.622Z,12.65
2022-09-23T04:29:40.282Z,12.30
2022-09-23T04:32:07.124Z,15.30
2022-09-23T04:34:33.805Z,12.52
2022-09-23T04:37:00.573Z,13.02
2022-09-23T04:39:27.331Z,12.98
2022-09-23T04:41:53.999Z,14.63
2022-09-23T04:44:21.265Z,10.18
2022-09-23T04:46:48.280Z,13.38
2022-09-23T04:49:16.496Z,11.02
2022-09-23T04:51:43.697Z,14.15
2022-09-23T04:54:13.769Z,14.50
2022-09-23T04:56:40.875Z,10.75
2022-09-23T04:59:07.991Z,12.57
2022-09-23T05:01:36.255Z,10.30
2022-09-23T05:04:05.898Z,10.70
2022-09-23T05:06:34.945Z,12.60
2022-09-23T05:09:04.221Z,12.23
2022-09-23T05:11:31.701Z,12.32
2022-09-23T05:13:58.843Z,15.20
2022-09-23T05:16:26.716Z,11.38
2022-09-23T05:18:53.948Z,12.13
2022-09-23T05:21:23.200Z,10.07
2022-09-23T05:23:55.334Z,10.20
2022-09-23T05:26:24.168Z,13.30
2022-09-23T05:28:51.161Z,10.82
2022-09-23T05:31:20.724Z,11.70
2022-09-23T05:33:52.911Z,11.98
2022-09-23T05:36:21.631Z,11.55
2022-09-23T05:38:50.130Z,13.73
2022-09-23T05:41:18.514Z,10.98
2022-09-23T05:43:45.420Z,14.38
2022-09-23T05:46:27.929Z,13.32
2022-09-23T05:49:02.548Z,15.95
2022-09-23T05:51:31.470Z,12.93
2022-09-23T05:53:59.577Z,12.80
2022-09-23T05:56:27.849Z,10.55
2022-09-23T05:58:56.986Z,11.27
2022-09-23T06:01:26.198Z,14.38
2022-09-23T06:03:54.636Z,15.85
2022-09-23T06:06:27.351Z,16.33
2022-09-23T06:08:54.093Z,14.52
2022-09-23T06:11:21.596Z,13.85
2022-09-23T06:13:49.303Z,15.18
2022-09-23T06:16:16.536Z,10.48
2022-09-23T06:18:45.203Z,11.93
2022-09-23T06:21:17.359Z,11.48
2022-09-23T06:23:45.013Z,12.68
2022-09-23T06:26:14.352Z,9.77
2022-09-23T06:28:43.000Z,10.85
2022-09-23T06:31:16.892Z,12.35
2022-09-23T06:33:45.024Z,10.85
2022-09-23T06:36:17.390Z,14.13
2022-09-23T06:38:51.811Z,13.43
2022-09-23T06:41:20.666Z,13.75
2022-09-23T06:43:47.857Z,12.68
2022-09-23T06:46:16.241Z,17.98
2022-09-23T06:48:46.123Z,16.27
2022-09-23T06:51:22.965Z,16.23
2022-09-23T06:53:50.054Z,15.20
2022-09-23T06:56:19.882Z,14.30
2022-09-23T06:58:47.525Z,15.73
2022-09-23T07:01:16.248Z,12.27
2022-09-23T07:03:44.823Z,19.02
2022-09-23T07:06:12.025Z,18.23
2022-09-23T07:08:39.925Z,24.10
2022-09-23T07:11:07.367Z,13.38
2022-09-23T07:13:34.321Z,15.95
2022-09-23T07:16:02.258Z,13.05
2022-09-23T07:18:36.952Z,13.63
2022-09-23T07:21:15.879Z,14.15
2022-09-23T07:23:47.945Z,17.13
2022-09-23T07:26:16.067Z,12.48
2022-09-23T07:28:43.515Z,16.30
2022-09-23T07:31:13.426Z,16.45
2022-09-23T07:33:45.462Z,19.42
2022-09-23T07:36:14.743Z,13.15
2022-09-23T07:38:45.150Z,15.57
2022-09-23T07:41:14.574Z,21.00
2022-09-23T07:43:41.446Z,13.00
2022-09-23T07:46:11.095Z,12.93
2022-09-23T07:48:38.960Z,16.45
2022-09-23T07:51:21.284Z,15.02
2022-09-23T07:53:49.129Z,15.60
2022-09-23T07:56:19.027Z,15.38
2022-09-23T07:59:01.858Z,17.60
2022-09-23T08:01:31.644Z,13.23
2022-09-23T08:04:02.237Z,15.43
2022-09-23T08:08:58.646Z,17.27
2022-09-23T08:11:26.752Z,17.35
2022-09-23T08:13:54.026Z,13.35
2022-09-23T08:16:22.083Z,11.00
2022-09-23T08:18:49.251Z,11.73
2022-09-23T08:21:20.870Z,13.43
2022-09-23T08:23:47.998Z,11.18
2022-09-23T08:26:20.922Z,10.65
2022-09-23T08:28:49.059Z,14.90
2022-09-23T08:31:15.786Z,12.85
2022-09-23T08:33:43.162Z,12.98
2022-09-23T08:36:09.885Z,11.27
2022-09-23T08:38:36.634Z,16.48
2022-09-23T08:41:33.183Z,9.63
2022-09-23T08:44:06.950Z,11.05
2022-09-23T08:46:40.470Z,12.85
2022-09-23T08:49:12.364Z,15.43
2022-09-23T08:51:46.100Z,11.43
2022-09-23T08:54:13.990Z,9.77
2022-09-23T08:56:44.476Z,10.68
2022-09-23T09:02:13.905Z,11.27
2022-09-23T09:04:46.713Z,14.88
2022-09-23T09:10:12.040Z,12.32
2022-09-23T09:12:46.314Z,13.07
2022-09-23T09:15:24.673Z,9.00
2022-09-23T09:18:12.699Z,12.40
2022-09-23T09:20:57.176Z,10.88
2022-09-23T09:23:46.012Z,9.55
2022-09-23T09:26:20.514Z,8.32
2022-09-23T09:29:17.226Z,10.27
2022-09-23T09:31:50.619Z,11.35
2022-09-23T09:34:46.697Z,9.02
2022-09-23T09:37:23.701Z,8.38
2022-09-23T09:39:50.931Z,10.65
2022-09-23T09:42:27.580Z,9.63
2022-09-23T09:45:03.102Z,16.05
2022-09-23T09:47:47.306Z,13.27
2022-09-23T09:50:38.522Z,12.05
2022-09-23T09:53:21.837Z,9.02
2022-09-23T09:56:29.729Z,12.07
2022-09-23T09:59:01.307Z,10.75
2022-09-23T10:01:31.279Z,11.40
2022-09-23T10:04:01.051Z,10.80
2022-09-23T10:06:33.220Z,8.55
2022-09-23T10:09:10.791Z,12.45
2022-09-23T10:11:38.747Z,13.13
2022-09-23T10:14:18.973Z,12.30
2022-09-23T10:16:48.933Z,18.80
2022-09-23T10:19:21.650Z,8.05
2022-09-23T10:21:53.297Z,11.70
2022-09-23T10:24:25.889Z,11.00
2022-09-23T10:27:04.305Z,13.20
2022-09-23T10:29:48.140Z,14.55
2022-09-23T10:32:39.982Z,12.07
2022-09-23T10:35:09.633Z,8.38
2022-09-23T10:37:37.652Z,13.97
2022-09-23T10:40:48.267Z,12.75
2022-09-23T10:43:57.262Z,13.43
2022-09-23T10:46:41.342Z,10.40
2022-09-23T10:49:38.794Z,14.13
2022-09-23T10:52:39.509Z,7.18
2022-09-23T10:55:40.792Z,17.45
2022-09-23T10:58:25.555Z,11.93
2022-09-23T11:01:13.449Z,11.07
2022-09-23T11:03:58.280Z,15.02
2022-09-23T11:06:45.928Z,11.65
2022-09-23T11:09:45.927Z,10.90
2022-09-23T11:12:27.894Z,15.68
2022-09-23T11:15:10.970Z,10.35
2022-09-23T11:18:10.118Z,10.77
2022-09-23T11:20:43.668Z,17.10
2022-09-23T11:23:29.702Z,14.70
2022-09-23T11:26:17.140Z,15.00
2022-09-23T11:29:18.184Z,9.52
2022-09-23T11:32:02.323Z,15.50
2022-09-23T11:35:03.380Z,10.05
2022-09-23T11:37:40.710Z,11.45
2022-09-23T11:40:16.904Z,12.43
2022-09-23T11:43:15.879Z,9.40
2022-09-23T11:46:03.082Z,14.30
2022-09-23T11:48:42.224Z,11.38
2022-09-23T11:51:43.923Z,10.18
2022-09-23T11:54:28.592Z,11.00
2022-09-23T11:57:01.196Z,16.20
2022-09-23T11:59:51.161Z,9.07
2022-09-23T12:02:33.637Z,8.80
2022-09-23T12:05:12.928Z,7.43
2022-09-23T12:08:01.172Z,6.75
2022-09-23T12:10:45.852Z,9.20
2022-09-23T12:13:44.880Z,7.68
2022-09-23T12:16:36.887Z,8.80
2022-09-23T12:19:44.052Z,7.57
2022-09-23T12:22:39.480Z,8.13
2022-09-23T12:25:21.042Z,7.22
2022-09-23T12:27:52.474Z,6.03
2022-09-23T12:30:21.968Z,7.72
2022-09-23T12:32:49.327Z,8.13
2022-09-23T12:35:32.474Z,9.10
2022-09-23T12:38:01.262Z,14.30
2022-09-23T12:40:43.993Z,14.88
2022-09-23T12:43:19.237Z,10.35
2022-09-23T12:45:46.204Z,8.55
2022-09-23T12:48:15.965Z,7.10
2022-09-23T12:51:11.426Z,15.90
2022-09-23T12:54:04.381Z,6.82
2022-09-23T12:56:37.159Z,7.00
2022-09-23T12:59:15.745Z,8.45
2022-09-23T13:01:43.523Z,4.60
2022-09-23T13:05:02.020Z,4.03
2022-09-23T13:07:34.154Z,14.02
2022-09-23T13:10:11.416Z,13.20
2022-09-23T13:12:42.360Z,9.85
2022-09-23T13:15:28.959Z,12.70
2022-09-23T13:18:20.409Z,6.97
2022-09-23T13:20:52.281Z,6.22
2022-09-23T13:23:31.540Z,6.20
2022-09-23T13:26:02.075Z,7.63
2022-09-23T13:28:44.613Z,7.05
2022-09-23T13:31:16.358Z,4.35
2022-09-23T13:33:54.772Z,7.50
2022-09-23T13:36:21.520Z,5.63
2022-09-23T13:38:48.343Z,5.78
2022-09-23T13:41:28.486Z,7.50
2022-09-23T13:44:00.887Z,8.98
2022-09-23T13:46:39.876Z,9.20
2022-09-23T13:49:17.364Z,6.05
2022-09-23T13:51:44.863Z,9.57
2022-09-23T13:54:32.105Z,4.97
2022-09-23T13:56:59.781Z,4.95
2022-09-23T13:59:42.286Z,5.80
2022-09-23T14:02:19.894Z,5.90
2022-09-23T14:04:50.869Z,10.07
2022-09-23T14:07:19.541Z,10.02
2022-09-23T14:09:51.604Z,11.02
2022-09-23T14:12:22.196Z,11.82
2022-09-23T14:14:51.703Z,6.85
2022-09-23T14:17:21.528Z,7.67
2022-09-23T14:19:49.057Z,9.05
2022-09-23T14:22:27.580Z,13.95
2022-09-23T14:24:55.846Z,11.82
2022-09-23T14:27:31.630Z,9.70
2022-09-23T14:30:00.208Z,17.33
2022-09-23T14:32:29.236Z,13.82
2022-09-23T14:35:03.781Z,18.35
2022-09-23T14:38:11.746Z,10.02
2022-09-23T14:41:14.239Z,16.52
2022-09-23T14:43:47.353Z,15.40
2022-09-23T14:46:21.153Z,13.00
2022-09-23T14:49:05.924Z,12.13
2022-09-23T14:52:03.380Z,9.77
2022-09-23T14:54:44.811Z,9.38
2022-09-23T14:57:38.754Z,9.95
2022-09-23T15:00:17.408Z,9.35
2022-09-23T15:02:57.866Z,7.85
2022-09-23T15:08:10.712Z,12.65
2022-09-23T15:10:39.538Z,11.50
2022-09-23T15:13:14.295Z,11.05
2022-09-23T15:15:42.530Z,18.23
2022-09-23T15:18:23.579Z,13.07
2022-09-23T15:20:52.355Z,9.30
2022-09-23T15:23:51.828Z,13.65
2022-09-23T15:26:52.462Z,15.15
2022-09-23T15:29:19.171Z,7.20
2022-09-23T15:31:50.780Z,11.35
2022-09-23T15:34:20.893Z,6.80
2022-09-23T15:36:49.646Z,7.75
2022-09-23T15:39:16.638Z,18.58
2022-09-23T15:42:20.827Z,12.95
2022-09-23T15:44:51.567Z,10.90
2022-09-23T15:47:58.368Z,11.98
2022-09-23T15:50:42.893Z,9.93
2022-09-23T15:53:26.075Z,8.75
2022-09-23T15:55:55.076Z,13.15
2022-09-23T15:58:22.591Z,9.65
2022-09-23T16:00:56.645Z,10.93
2022-09-23T16:03:28.409Z,9.52
2022-09-23T16:06:02.194Z,9.55
2022-09-23T16:08:29.400Z,11.35
2022-09-23T16:10:56.230Z,10.45
2022-09-23T16:13:25.067Z,8.70
2022-09-23T16:15:51.859Z,11.98
2022-09-23T16:18:25.868Z,8.27
2022-09-23T16:20:52.608Z,11.25
2022-09-23T16:23:37.121Z,12.23
2022-09-23T16:26:15.410Z,8.35
2022-09-23T16:28:52.965Z,9.27
2022-09-23T16:31:45.982Z,8.90
2022-09-23T16:34:20.110Z,10.05
2022-09-23T16:37:45.371Z,11.80
2022-09-23T16:40:22.806Z,11.80
2022-09-23T16:46:42.455Z,12.68
2022-09-23T16:49:13.950Z,10.90
2022-09-23T16:51:45.795Z,10.10
2022-09-23T16:54:13.152Z,12.27
2022-09-23T16:56:45.095Z,10.15
2022-09-23T16:59:13.455Z,15.05
2022-09-23T17:01:58.774Z,11.02
2022-09-23T17:04:33.463Z,11.15
2022-09-23T17:07:16.160Z,10.68
2022-09-23T17:09:48.923Z,10.77
2022-09-23T17:12:40.580Z,9.85
2022-09-23T17:15:16.431Z,12.88
2022-09-23T17:17:43.088Z,9.32
2022-09-23T17:20:10.139Z,9.18
2022-09-23T17:22:36.823Z,10.55
2022-09-23T17:25:03.858Z,14.40
2022-09-23T17:27:31.882Z,11.45
2022-09-23T17:29:59.101Z,13.68
2022-09-23T17:32:26.278Z,13.02
2022-09-23T17:34:53.011Z,16.90
2022-09-23T17:37:20.229Z,14.23
2022-09-23T17:39:46.877Z,22.10
2022-09-23T17:42:14.664Z,25.08
2022-09-23T17:44:41.671Z,21.40
2022-09-23T17:47:10.416Z,20.80
2022-09-23T17:49:37.073Z,17.27
2022-09-23T17:52:05.601Z,24.98
2022-09-23T17:54:32.783Z,19.15
2022-09-23T17:57:00.100Z,19.08
2022-09-23T17:59:27.169Z,19.13
2022-09-23T18:01:54.477Z,23.15
2022-09-23T18:04:21.375Z,18.63
2022-09-23T18:06:48.127Z,20.52
2022-09-23T18:09:14.891Z,20.98
2022-09-23T18:11:44.153Z,17.73
2022-09-23T18:14:19.971Z,23.83
2022-09-23T18:16:51.141Z,25.45
2022-09-23T18:19:20.468Z,17.80
2022-09-23T18:21:50.526Z,24.50
2022-09-23T18:24:34.088Z,19.92
2022-09-23T18:27:13.118Z,29.33
2022-09-23T18:29:39.745Z,20.95
2022-09-23T18:32:08.226Z,29.02
2022-09-23T18:34:36.959Z,18.08
2022-09-23T18:37:06.350Z,22.15
2022-09-23T18:39:42.883Z,18.60
2022-09-23T18:42:09.628Z,22.05
2022-09-23T18:44:36.318Z,22.30
2022-09-23T18:47:03.024Z,26.25
2022-09-23T18:49:48.274Z,27.35
2022-09-23T18:52:15.704Z,28.48
2022-09-23T18:54:44.004Z,21.88
2022-09-23T18:57:14.501Z,25.20
2022-09-23T18:59:41.476Z,22.42
2022-09-23T19:02:08.672Z,18.67
2022-09-23T19:04:35.783Z,24.35
2022-09-23T19:07:04.056Z,22.05
2022-09-23T19:09:30.738Z,32.20
2022-09-23T19:11:57.706Z,27.73
2022-09-23T19:14:24.626Z,26.50
2022-09-23T19:16:51.470Z,23.20
2022-09-23T19:19:18.185Z,23.00
2022-09-23T19:21:45.021Z,25.60
2022-09-23T19:24:15.535Z,23.02
2022-09-23T19:26:43.741Z,24.30
2022-09-23T19:29:15.752Z,27.13
2022-09-23T19:31:43.407Z,26.10
2022-09-23T19:34:15.277Z,25.50
2022-09-23T19:36:44.630Z,25.42
2022-09-23T19:39:20.243Z,22.67
2022-09-23T19:41:47.409Z,24.73
2022-09-23T19:44:15.299Z,23.17
2022-09-23T19:46:45.203Z,23.85
2022-09-23T19:49:12.915Z,25.00
2022-09-23T19:51:40.223Z,25.55
2022-09-23T19:54:09.169Z,23.40
2022-09-23T19:56:36.801Z,29.83
2022-09-23T19:59:05.909Z,24.35
2022-09-23T20:01:33.044Z,27.75
2022-09-23T20:04:00.336Z,23.70
2022-09-23T20:06:32.538Z,27.13
2022-09-23T20:09:00.856Z,28.08
2022-09-23T20:11:31.467Z,22.33
2022-09-23T20:14:06.142Z,24.33
2022-09-23T20:16:35.821Z,24.25
2022-09-23T20:19:04.411Z,25.60
2022-09-23T20:21:33.575Z,20.80
2022-09-23T20:24:00.537Z,24.23
2022-09-23T20:26:45.849Z,26.10
2022-09-23T20:29:12.608Z,22.85
2022-09-23T20:31:41.440Z,23.27
2022-09-23T20:34:10.504Z,23.55
2022-09-23T20:36:39.208Z,22.77
2022-09-23T20:39:06.148Z,24.50
2022-09-23T20:41:36.689Z,24.40
2022-09-23T20:44:06.295Z,21.65
2022-09-23T20:46:33.977Z,22.95
2022-09-23T20:49:01.950Z,23.27
2022-09-23T20:51:28.708Z,25.15
2022-09-23T20:53:55.511Z,24.98
2022-09-23T20:56:22.393Z,23.20
2022-09-23T20:58:50.784Z,27.30
2022-09-23T21:01:18.424Z,26.40
2022-09-23T21:03:47.753Z,24.13
2022-09-23T21:06:16.366Z,28.90
2022-09-23T21:08:44.428Z,25.25
2022-09-23T21:11:14.970Z,27.70
2022-09-23T21:13:46.808Z,24.35
2022-09-23T21:16:16.199Z,24.25
2022-09-23T21:18:43.939Z,24.73
2022-09-23T21:21:12.288Z,26.27
2022-09-23T21:23:39.811Z,27.10
2022-09-23T21:26:07.905Z,24.08
2022-09-23T21:28:36.667Z,24.83
2022-09-23T21:31:06.137Z,24.48
2022-09-23T21:33:33.117Z,22.63
2022-09-23T21:36:03.493Z,24.02
2022-09-23T21:41:02.531Z,20.90
2022-09-23T21:43:35.054Z,21.88
2022-09-23T21:46:04.104Z,22.20
2022-09-23T21:48:32.697Z,26.35
2022-09-23T21:51:08.214Z,27.55
2022-09-23T21:53:36.836Z,22.83
2022-09-23T21:56:20.334Z,28.90
2022-09-23T21:58:47.613Z,26.30
2022-09-23T22:01:17.040Z,24.92
2022-09-23T22:03:48.840Z,24.57
2022-09-23T22:06:20.328Z,27.20
2022-09-23T22:08:49.354Z,28.40
2022-09-23T22:11:39.997Z,31.90
2022-09-23T22:14:09.783Z,26.05
2022-09-23T22:16:36.898Z,31.95
2022-09-23T22:19:07.549Z,28.65
2022-09-23T22:21:37.355Z,31.17
2022-09-23T22:24:05.504Z,31.33
2022-09-23T22:26:35.200Z,25.20
2022-09-23T22:29:27.999Z,25.73
2022-09-23T22:32:13.550Z,28.60
2022-09-23T22:34:50.407Z,27.13
2022-09-23T22:37:21.818Z,29.17
2022-09-23T22:39:48.763Z,26.60
2022-09-23T22:42:16.605Z,24.52
2022-09-23T22:44:43.406Z,27.05
2022-09-23T22:47:10.725Z,25.48
2022-09-23T22:49:37.448Z,27.88
2022-09-23T22:52:09.168Z,26.23
2022-09-23T22:54:36.346Z,33.28
2022-09-23T22:57:07.508Z,27.10
2022-09-23T22:59:35.005Z,28.75
2022-09-23T23:02:05.151Z,27.63
2022-09-23T23:04:32.013Z,28.60
2022-09-23T23:06:58.949Z,25.73
2022-09-23T23:09:26.033Z,28.05
2022-09-23T23:11:52.975Z,27.45
2022-09-23T23:14:19.782Z,27.88
2022-09-23T23:16:47.076Z,26.05
2022-09-23T23:19:17.013Z,25.63
2022-09-23T23:21:45.230Z,28.50
2022-09-23T23:24:21.302Z,26.55
2022-09-23T23:26:48.571Z,27.60
2022-09-23T23:29:16.644Z,27.30
2022-09-23T23:31:43.635Z,27.88
2022-09-23T23:34:16.293Z,27.63
2022-09-23T23:36:43.802Z,29.50
2022-09-23T23:39:11.629Z,28.83
2022-09-23T23:41:39.549Z,28.33
2022-09-23T23:44:12.753Z,26.60
2022-09-23T23:46:39.467Z,30.60
2022-09-23T23:49:06.802Z,25.52
2022-09-23T23:51:33.471Z,27.67
2022-09-23T23:54:00.610Z,32.10
2022-09-23T23:56:29.663Z,31.90
2022-09-23T23:59:02.416Z,29.33
